Time;durP1;ratioP1;P1;durP2;ratioP2;P2;SDS_P1;SDS_P2;PMS_P1;PMS_P2;Temp;Humidity;BMP_temperature;BMP_pressure;BME280_temperature;BME280_humidity;BME280_pressure;Samples;Min_cycle;Max_cycle;Signal;HPM_P1;HPM_P2
2021/07/23 00:00:40;;;;;;;3.93;3.63;;;;;23.70;100895.00;;;;2050481;28;20219;-64
2021/07/23 00:01:40;;;;;;;4.47;4.10;;;;;23.80;100896.00;;;;2059446;28;20246;-64
2021/07/23 00:02:40;;;;;;;4.03;3.73;;;;;23.80;100893.00;;;;2059479;28;20204;-64
2021/07/23 00:03:41;;;;;;;3.57;3.37;;;;;23.70;100897.00;;;;2059852;28;20231;-65
2021/07/23 00:04:42;;;;;;;4.00;3.70;;;;;23.80;100899.00;;;;2060055;28;20243;-64
2021/07/23 00:05:42;;;;;;;4.10;3.80;;;;;23.80;100889.00;;;;2060049;28;20211;-65
2021/07/23 00:06:43;;;;;;;3.70;3.40;;;;;23.80;100900.00;;;;2059457;28;20238;-65
2021/07/23 00:07:43;;;;;;;4.00;3.70;;;;;23.80;100898.00;;;;2059293;28;20218;-65
2021/07/23 00:08:43;;;;;;;4.10;3.80;;;;;23.70;100896.00;;;;2059464;28;20262;-65
2021/07/23 00:09:44;;;;;;;3.97;3.67;;;;;23.70;100896.00;;;;2059241;28;20265;-65
2021/07/23 00:10:44;;;;;;;3.93;3.63;;;;;23.70;100897.00;;;;2058996;28;20212;-65
2021/07/23 00:11:44;;;;;;;3.90;3.60;;;;;23.80;100892.00;;;;2059377;28;20250;-65
2021/07/23 00:12:45;;;;;;;4.20;3.80;;;;;23.80;100897.00;;;;2060433;28;20216;-64
2021/07/23 00:13:47;;;;;;;4.10;3.80;;;;;23.70;100896.00;;;;2059938;28;20226;-64
2021/07/23 00:14:47;;;;;;;3.90;3.60;;;;;23.80;100892.00;;;;2051582;28;20218;-65
2021/07/23 00:15:47;;;;;;;4.47;4.07;;;;;23.80;100892.00;;;;2051679;28;20219;-65
2021/07/23 00:16:48;;;;;;;4.30;4.00;;;;;23.80;100894.00;;;;2059240;28;20249;-65
2021/07/23 00:17:48;;;;;;;3.63;3.43;;;;;23.70;100892.00;;;;2059535;28;20219;-65
2021/07/23 00:18:48;;;;;;;3.87;3.57;;;;;23.70;100893.00;;;;2059490;28;20302;-64
2021/07/23 00:19:49;;;;;;;4.20;3.80;;;;;23.70;100898.00;;;;2059391;28;20234;-64
2021/07/23 00:20:49;;;;;;;3.73;3.43;;;;;23.70;100892.00;;;;2059664;28;20221;-65
2021/07/23 00:21:49;;;;;;;3.87;3.57;;;;;23.80;100889.00;;;;2060322;28;20214;-65
2021/07/23 00:22:50;;;;;;;4.10;3.80;;;;;23.70;100891.00;;;;2060335;28;20219;-64
2021/07/23 00:23:50;;;;;;;4.63;4.23;;;;;23.70;100893.00;;;;2060140;28;20223;-64
2021/07/23 00:24:50;;;;;;;3.80;3.50;;;;;23.80;100892.00;;;;2060160;28;20222;-65
2021/07/23 00:25:51;;;;;;;3.57;3.37;;;;;23.70;100891.00;;;;2062626;28;20254;-65
2021/07/23 00:26:52;;;;;;;4.30;3.90;;;;;23.70;100885.00;;;;2060429;28;20218;-65
2021/07/23 00:27:52;;;;;;;4.07;3.77;;;;;23.80;100890.00;;;;2059552;28;20223;-65
2021/07/23 00:28:52;;;;;;;4.13;3.83;;;;;23.80;100881.00;;;;2059690;28;20443;-65
2021/07/23 00:29:53;;;;;;;4.03;3.63;;;;;23.70;100888.00;;;;2059934;28;20235;-65
2021/07/23 00:30:53;;;;;;;3.77;3.50;;;;;23.70;100885.00;;;;2059539;28;20224;-65
2021/07/23 00:31:53;;;;;;;3.90;3.60;;;;;23.70;100882.00;;;;2060087;28;20215;-64
2021/07/23 00:32:54;;;;;;;4.03;3.73;;;;;23.70;100887.00;;;;2060197;28;20341;-64
2021/07/23 00:33:54;;;;;;;4.10;3.80;;;;;23.70;100889.00;;;;2059262;28;20221;-65
2021/07/23 00:34:54;;;;;;;4.00;3.70;;;;;23.70;100891.00;;;;2059395;28;20585;-65
2021/07/23 00:35:55;;;;;;;3.93;3.63;;;;;23.70;100889.00;;;;2059398;28;20211;-65
2021/07/23 00:36:55;;;;;;;3.97;3.63;;;;;23.70;100887.00;;;;2059328;28;20238;-65
2021/07/23 00:37:56;;;;;;;3.40;3.20;;;;;23.70;100886.00;;;;2059946;28;20242;-65
2021/07/23 00:38:57;;;;;;;3.45;3.25;;;;;23.80;100866.00;;;;2060204;28;20224;-64
2021/07/23 00:39:57;;;;;;;3.70;3.40;;;;;23.70;100888.00;;;;2060033;28;20638;-64
2021/07/23 00:40:57;;;;;;;3.80;3.50;;;;;23.70;100886.00;;;;2059377;28;20284;-65
2021/07/23 00:41:58;;;;;;;4.60;4.20;;;;;23.70;100890.00;;;;2059478;28;20642;-65
2021/07/23 00:42:58;;;;;;;4.00;3.70;;;;;23.70;100885.00;;;;2059379;28;20211;-64
2021/07/23 00:43:58;;;;;;;3.90;3.60;;;;;23.70;100886.00;;;;2059400;28;20613;-65
2021/07/23 00:44:59;;;;;;;3.80;3.50;;;;;23.70;100886.00;;;;2059356;28;20587;-65
2021/07/23 00:45:59;;;;;;;3.83;3.50;;;;;23.70;100890.00;;;;2059402;28;20645;-65
2021/07/23 00:47:00;;;;;;;3.60;3.40;;;;;23.70;100882.00;;;;2059889;28;21090;-64
2021/07/23 00:48:01;;;;;;;4.00;3.70;;;;;23.70;100878.00;;;;2060025;28;20226;-64
2021/07/23 00:49:01;;;;;;;3.85;3.55;;;;;23.70;100879.00;;;;2060041;28;20250;-63
2021/07/23 00:50:03;;;;;;;3.80;3.50;;;;;23.70;100880.00;;;;2060073;28;20590;-64
2021/07/23 00:51:04;;;;;;;3.70;3.40;;;;;23.70;100889.00;;;;2058088;28;20211;-65
2021/07/23 00:52:04;;;;;;;4.00;3.70;;;;;23.70;100872.00;;;;2050406;28;20239;-64
2021/07/23 00:53:05;;;;;;;4.00;3.70;;;;;23.70;100880.00;;;;2042476;29;20248;-64
2021/07/23 00:54:05;;;;;;;3.90;3.60;;;;;23.70;100883.00;;;;2042734;29;20225;-64
2021/07/23 00:55:07;;;;;;;3.57;3.30;;;;;23.70;100880.00;;;;2038961;29;20248;-65
2021/07/23 00:56:07;;;;;;;3.40;3.20;;;;;23.70;100875.00;;;;2036657;28;20205;-64
2021/07/23 00:57:07;;;;;;;3.33;3.13;;;;;23.70;100875.00;;;;2047812;28;20244;-64
2021/07/23 00:58:08;;;;;;;3.60;3.30;;;;;23.70;100880.00;;;;2044609;28;20264;-65
2021/07/23 00:59:08;;;;;;;3.37;3.17;;;;;23.70;100879.00;;;;2042472;29;20213;-65
2021/07/23 01:00:09;;;;;;;4.03;3.73;;;;;23.70;100879.00;;;;2050973;28;20205;-64
2021/07/23 01:01:09;;;;;;;3.80;3.50;;;;;23.70;100877.00;;;;2050767;28;20633;-65
2021/07/23 01:02:09;;;;;;;4.00;3.70;;;;;23.70;100877.00;;;;2059878;28;20235;-65
2021/07/23 01:03:10;;;;;;;3.70;3.40;;;;;23.70;100881.00;;;;2059425;28;20742;-65
2021/07/23 01:04:10;;;;;;;3.90;3.60;;;;;23.70;100875.00;;;;2050582;28;20780;-65
2021/07/23 01:05:11;;;;;;;3.60;3.30;;;;;23.70;100873.00;;;;2042467;29;21095;-65
2021/07/23 01:06:11;;;;;;;4.10;3.80;;;;;23.70;100879.00;;;;2050499;28;20746;-64
2021/07/23 01:07:15;;;;;;;4.07;3.77;;;;;23.70;100885.00;;;;2042803;29;20300;-65
2021/07/23 01:08:15;;;;;;;4.10;3.80;;;;;23.70;100882.00;;;;2044077;28;20360;-65
2021/07/23 01:09:16;;;;;;;3.33;3.13;;;;;23.70;100880.00;;;;2059733;28;20212;-65
2021/07/23 01:10:16;;;;;;;3.87;3.57;;;;;23.70;100875.00;;;;2059207;28;20219;-64
2021/07/23 01:11:17;;;;;;;3.57;3.27;;;;;23.70;100878.00;;;;2050717;28;20470;-64
2021/07/23 01:12:17;;;;;;;3.60;3.40;;;;;23.70;100876.00;;;;2050572;28;20243;-64
2021/07/23 01:13:17;;;;;;;4.17;3.80;;;;;23.70;100874.00;;;;2059043;28;20221;-65
2021/07/23 01:14:18;;;;;;;4.07;3.77;;;;;23.70;100879.00;;;;2058573;28;20219;-65
2021/07/23 01:15:18;;;;;;;3.10;2.90;;;;;23.70;100877.00;;;;2050642;28;20208;-65
2021/07/23 01:16:18;;;;;;;4.20;3.90;;;;;23.70;100875.00;;;;2051275;28;20297;-65
2021/07/23 01:17:19;;;;;;;3.40;3.20;;;;;23.70;100869.00;;;;2059850;28;20722;-65
2021/07/23 01:18:19;;;;;;;4.27;3.87;;;;;23.70;100879.00;;;;2051182;28;20721;-65
2021/07/23 01:19:19;;;;;;;3.27;3.07;;;;;23.70;100884.00;;;;2051166;28;20776;-65
2021/07/23 01:20:26;;;;;;;4.00;3.70;;;;;23.70;100880.00;;;;2050016;28;21069;-64
2021/07/23 01:21:27;;;;;;;3.40;3.20;;;;;23.70;100871.00;;;;2051290;28;20593;-64
2021/07/23 01:22:28;;;;;;;3.80;3.60;;;;;23.70;100883.00;;;;2050450;28;20315;-65
2021/07/23 01:23:32;;;;;;;3.77;3.47;;;;;23.70;100872.00;;;;2051052;28;20279;-65
2021/07/23 01:24:33;;;;;;;3.33;3.08;;;;;23.70;100873.00;;;;2059751;28;20444;-64
2021/07/23 01:25:34;;;;;;;3.80;3.50;;;;;23.70;100868.00;;;;2054179;28;20286;-64
2021/07/23 01:26:34;;;;;;;3.50;3.30;;;;;23.70;100873.00;;;;2052515;28;20594;-65
2021/07/23 01:27:40;;;;;;;3.43;3.23;;;;;23.70;100865.00;;;;2050323;28;20207;-64
2021/07/23 01:28:45;;;;;;;3.45;3.25;;;;;23.70;100870.00;;;;2042949;29;21100;-65
2021/07/23 01:29:46;;;;;;;3.45;3.25;;;;;23.70;100870.00;;;;2051829;28;20208;-65
2021/07/23 01:30:46;;;;;;;3.27;3.07;;;;;23.70;100862.00;;;;2058944;28;20226;-65
2021/07/23 01:31:47;;;;;;;3.60;3.30;;;;;23.70;100863.00;;;;2059727;28;20224;-65
2021/07/23 01:32:47;;;;;;;3.60;3.40;;;;;23.70;100863.00;;;;2059731;28;20222;-64
2021/07/23 01:33:47;;;;;;;3.57;3.27;;;;;23.70;100859.00;;;;2058872;28;20219;-65
2021/07/23 01:34:48;;;;;;;3.30;3.10;;;;;23.70;100867.00;;;;2058887;28;20214;-65
2021/07/23 01:35:48;;;;;;;3.80;3.50;;;;;23.70;100859.00;;;;2058157;28;20272;-65
2021/07/23 01:36:48;;;;;;;3.10;2.90;;;;;23.70;100865.00;;;;2049830;28;20266;-64
2021/07/23 01:37:49;;;;;;;3.53;3.33;;;;;23.70;100865.00;;;;2049678;28;20220;-65
2021/07/23 01:38:49;;;;;;;3.17;2.97;;;;;23.70;100856.00;;;;2059076;28;20306;-65
2021/07/23 01:39:50;;;;;;;2.70;2.50;;;;;23.70;100865.00;;;;2050640;28;20299;-64
2021/07/23 01:40:52;;;;;;;3.28;3.08;;;;;23.70;100872.00;;;;2041764;28;20303;-65
2021/07/23 01:41:52;;;;;;;3.80;3.50;;;;;23.70;100864.00;;;;2042510;28;20683;-65
2021/07/23 01:42:53;;;;;;;3.47;3.27;;;;;23.70;100859.00;;;;2049561;28;20215;-65
2021/07/23 01:43:53;;;;;;;3.60;3.30;;;;;23.70;100861.00;;;;2058852;28;20231;-65
2021/07/23 01:44:53;;;;;;;3.20;3.00;;;;;23.70;100859.00;;;;2058936;28;20586;-65
2021/07/23 01:45:54;;;;;;;3.10;2.90;;;;;23.70;100862.00;;;;2058748;28;20270;-65
2021/07/23 01:46:54;;;;;;;3.87;3.57;;;;;23.70;100863.00;;;;2059193;28;20299;-65
2021/07/23 01:47:55;;;;;;;3.50;3.30;;;;;23.70;100867.00;;;;2059778;28;20215;-65
2021/07/23 01:48:55;;;;;;;3.17;2.90;;;;;23.70;100856.00;;;;2059678;28;20567;-65
2021/07/23 01:49:55;;;;;;;3.63;3.33;;;;;23.70;100867.00;;;;2059596;28;20698;-64
2021/07/23 01:50:56;;;;;;;3.30;3.10;;;;;23.70;100869.00;;;;2058808;28;20732;-65
2021/07/23 01:51:56;;;;;;;3.90;3.60;;;;;23.70;100857.00;;;;2058769;28;20690;-65
2021/07/23 01:52:56;;;;;;;3.50;3.30;;;;;23.70;100865.00;;;;2058828;28;20306;-65
2021/07/23 01:53:56;;;;;;;2.87;2.67;;;;;23.70;100825.00;;;;2058405;28;20615;-65
2021/07/23 01:54:57;;;;;;;3.40;3.20;;;;;23.70;100862.00;;;;2061250;28;20636;-65
2021/07/23 01:55:57;;;;;;;3.37;3.07;;;;;23.70;100860.00;;;;2062451;28;20554;-65
2021/07/23 01:56:57;;;;;;;3.27;3.07;;;;;23.70;100863.00;;;;2061089;28;20644;-65
2021/07/23 01:57:58;;;;;;;3.77;3.50;;;;;23.70;100868.00;;;;2060259;28;20207;-65
2021/07/23 01:58:58;;;;;;;3.13;2.93;;;;;23.70;100865.00;;;;2050138;28;20212;-64
2021/07/23 01:59:58;;;;;;;3.37;3.10;;;;;23.70;100861.00;;;;2041538;29;20209;-64
2021/07/23 02:00:59;;;;;;;3.30;3.10;;;;;23.70;100862.00;;;;2050010;28;20870;-65
2021/07/23 02:01:59;;;;;;;3.70;3.40;;;;;23.70;100856.00;;;;2050394;28;20220;-65
2021/07/23 02:02:59;;;;;;;3.43;3.23;;;;;23.70;100862.00;;;;2050415;28;20222;-64
2021/07/23 02:04:00;;;;;;;3.20;3.00;;;;;23.60;100854.00;;;;2058891;28;20223;-65
2021/07/23 02:05:00;;;;;;;2.93;2.73;;;;;23.70;100861.00;;;;2058303;28;20242;-65
2021/07/23 02:06:01;;;;;;;3.50;3.20;;;;;23.70;100858.00;;;;2057830;28;20222;-65
2021/07/23 02:07:01;;;;;;;3.10;2.90;;;;;23.70;100859.00;;;;2058216;28;20215;-65
2021/07/23 02:08:02;;;;;;;3.30;3.10;;;;;23.70;100859.00;;;;2058113;28;20215;-64
2021/07/23 02:09:02;;;;;;;3.30;3.10;;;;;23.70;100854.00;;;;2058521;28;20215;-64
2021/07/23 02:10:04;;;;;;;3.87;3.60;;;;;23.70;100854.00;;;;2059223;28;20218;-64
2021/07/23 02:11:05;;;;;;;3.30;3.10;;;;;23.70;100861.00;;;;2050187;28;20815;-65
2021/07/23 02:12:05;;;;;;;3.20;3.00;;;;;23.70;100858.00;;;;2050766;28;20211;-64
2021/07/23 02:13:06;;;;;;;3.43;3.23;;;;;23.70;100862.00;;;;2058370;28;20218;-65
2021/07/23 02:14:07;;;;;;;3.47;3.27;;;;;23.70;100850.00;;;;2058507;28;20211;-65
2021/07/23 02:15:08;;;;;;;3.03;2.83;;;;;23.70;100866.00;;;;2058720;28;20215;-65
2021/07/23 02:16:08;;;;;;;3.17;2.97;;;;;23.70;100854.00;;;;2058701;28;20246;-65
2021/07/23 02:17:09;;;;;;;3.57;3.37;;;;;23.70;100855.00;;;;2059267;28;20459;-65
2021/07/23 02:18:09;;;;;;;3.50;3.30;;;;;23.70;100855.00;;;;2059430;28;20204;-64
2021/07/23 02:19:10;;;;;;;3.70;3.47;;;;;23.70;100856.00;;;;2059435;28;20567;-65
2021/07/23 02:20:10;;;;;;;3.20;3.00;;;;;23.70;100855.00;;;;2058982;28;20219;-65
2021/07/23 02:21:11;;;;;;;3.37;3.17;;;;;23.70;100855.00;;;;2058546;28;20214;-65
2021/07/23 02:22:11;;;;;;;3.27;3.07;;;;;23.70;100853.00;;;;2058585;28;20215;-64
2021/07/23 02:23:11;;;;;;;3.20;3.00;;;;;23.70;100852.00;;;;2057597;28;20248;-65
2021/07/23 02:24:12;;;;;;;3.13;2.93;;;;;23.70;100847.00;;;;2058599;28;20294;-65
2021/07/23 02:25:12;;;;;;;3.00;2.80;;;;;23.70;100846.00;;;;2062369;28;20214;-65
2021/07/23 02:26:19;;;;;;;3.47;3.27;;;;;23.70;100847.00;;;;2059672;28;20295;-65
2021/07/23 02:27:19;;;;;;;3.20;3.00;;;;;23.70;100848.00;;;;2059370;28;20310;-65
2021/07/23 02:28:19;;;;;;;3.27;3.07;;;;;23.70;100851.00;;;;2059493;28;20235;-65
2021/07/23 02:29:20;;;;;;;3.37;3.17;;;;;23.70;100850.00;;;;2058420;28;20223;-64
2021/07/23 02:30:20;;;;;;;3.10;2.90;;;;;23.70;100855.00;;;;2057882;28;20245;-64
2021/07/23 02:31:21;;;;;;;3.27;3.00;;;;;23.70;100848.00;;;;2058374;28;20219;-65
2021/07/23 02:32:21;;;;;;;3.20;3.00;;;;;23.70;100844.00;;;;2058087;28;20695;-64
2021/07/23 02:33:21;;;;;;;3.40;3.20;;;;;23.70;100845.00;;;;2058941;28;20805;-64
2021/07/23 02:34:22;;;;;;;3.47;3.27;;;;;23.70;100843.00;;;;2058053;28;20223;-65
2021/07/23 02:35:23;;;;;;;3.40;3.13;;;;;23.70;100837.00;;;;2059386;28;20217;-64
2021/07/23 02:36:23;;;;;;;3.47;3.27;;;;;23.70;100843.00;;;;2059305;28;20237;-65
2021/07/23 02:37:24;;;;;;;2.90;2.70;;;;;23.70;100844.00;;;;2058933;28;20215;-65
2021/07/23 02:38:24;;;;;;;3.23;3.00;;;;;23.70;100843.00;;;;2058567;28;20218;-65
2021/07/23 02:39:25;;;;;;;3.60;3.30;;;;;23.70;100837.00;;;;2058488;28;20222;-65
2021/07/23 02:40:25;;;;;;;3.35;3.15;;;;;23.70;100846.00;;;;2057924;28;20223;-65
2021/07/23 02:41:26;;;;;;;3.30;3.10;;;;;23.70;100843.00;;;;2058615;28;20239;-64
2021/07/23 02:42:26;;;;;;;2.90;2.70;;;;;23.70;100837.00;;;;2059196;28;20219;-64
2021/07/23 02:43:26;;;;;;;3.00;2.80;;;;;23.70;100839.00;;;;2061359;28;20226;-64
2021/07/23 02:44:27;;;;;;;3.37;3.10;;;;;23.70;100834.00;;;;2059982;28;20736;-65
2021/07/23 02:45:27;;;;;;;2.90;2.70;;;;;23.70;100834.00;;;;2059436;28;20211;-65
2021/07/23 02:46:28;;;;;;;3.60;3.40;;;;;23.70;100835.00;;;;2059266;28;20216;-65
2021/07/23 02:47:29;;;;;;;2.85;2.65;;;;;23.70;100834.00;;;;2059320;28;20215;-65
2021/07/23 02:48:29;;;;;;;3.40;3.10;;;;;23.70;100830.00;;;;2059375;28;20215;-64
2021/07/23 02:49:29;;;;;;;3.13;2.93;;;;;23.70;100833.00;;;;2059313;28;20215;-64
2021/07/23 02:50:30;;;;;;;3.10;2.90;;;;;23.70;100833.00;;;;2058274;28;20215;-65
2021/07/23 02:51:30;;;;;;;3.13;2.90;;;;;23.70;100826.00;;;;2058489;28;20297;-65
2021/07/23 02:52:30;;;;;;;3.83;3.20;;;;;23.70;100825.00;;;;2058241;28;20223;-64
2021/07/23 02:53:31;;;;;;;3.20;3.00;;;;;23.70;100830.00;;;;2058439;28;20219;-65
2021/07/23 02:54:31;;;;;;;3.13;2.80;;;;;23.70;100831.00;;;;2058720;28;20306;-64
2021/07/23 02:55:32;;;;;;;3.10;2.90;;;;;23.60;100822.00;;;;2058999;28;20274;-64
2021/07/23 02:56:33;;;;;;;2.97;2.78;;;;;23.70;100825.00;;;;2058508;28;20678;-64
2021/07/23 02:57:33;;;;;;;3.30;3.10;;;;;23.70;100832.00;;;;2059223;28;20322;-65
2021/07/23 02:58:40;;;;;;;3.23;3.00;;;;;23.70;100830.00;;;;2059035;28;20227;-65
2021/07/23 02:59:40;;;;;;;3.03;2.83;;;;;23.70;100827.00;;;;2058227;28;20245;-64
2021/07/23 03:00:41;;;;;;;3.10;2.90;;;;;23.70;100822.00;;;;2057953;28;20337;-64
2021/07/23 03:01:41;;;;;;;2.80;2.60;;;;;23.70;100818.00;;;;2058398;28;20263;-64
2021/07/23 03:02:41;;;;;;;3.00;2.80;;;;;23.70;100827.00;;;;2059142;28;20214;-65
2021/07/23 03:03:42;;;;;;;2.80;2.60;;;;;23.70;100825.00;;;;2059209;28;20302;-64
2021/07/23 03:04:42;;;;;;;3.10;2.90;;;;;23.70;100819.00;;;;2059038;28;20203;-65
2021/07/23 03:05:43;;;;;;;3.17;2.97;;;;;23.70;100813.00;;;;2056000;28;20207;-65
2021/07/23 03:06:43;;;;;;;3.10;2.90;;;;;23.60;100817.00;;;;2058687;28;20217;-65
2021/07/23 03:07:43;;;;;;;3.10;2.90;;;;;23.70;100821.00;;;;2058247;28;20215;-65
2021/07/23 03:08:44;;;;;;;3.23;3.03;;;;;23.70;100819.00;;;;2048457;28;20632;-65
2021/07/23 03:09:44;;;;;;;4.50;3.10;;;;;23.70;100816.00;;;;2057831;28;20212;-64
2021/07/23 03:10:44;;;;;;;3.03;2.83;;;;;23.70;100821.00;;;;2057437;28;20737;-65
2021/07/23 03:11:45;;;;;;;2.90;2.70;;;;;23.70;100818.00;;;;2050440;28;20758;-64
2021/07/23 03:12:45;;;;;;;3.13;2.93;;;;;23.70;100824.00;;;;2052185;28;20204;-65
2021/07/23 03:13:45;;;;;;;3.10;2.90;;;;;23.70;100815.00;;;;2064137;28;20273;-64
2021/07/23 03:14:46;;;;;;;3.20;3.00;;;;;23.70;100812.00;;;;2063144;28;20349;-65
2021/07/23 03:15:46;;;;;;;3.20;3.00;;;;;23.70;100809.00;;;;2061438;28;20762;-65
2021/07/23 03:16:46;;;;;;;3.20;3.00;;;;;23.70;100809.00;;;;2060039;28;20872;-65
2021/07/23 03:17:47;;;;;;;3.03;2.83;;;;;23.70;100814.00;;;;2059491;28;20211;-64
2021/07/23 03:18:47;;;;;;;2.97;2.77;;;;;23.70;100808.00;;;;2062586;28;20215;-67
2021/07/23 03:19:47;;;;;;;3.20;3.00;;;;;23.60;100812.00;;;;2057466;28;20666;-67
2021/07/23 03:20:48;;;;;;;3.03;2.83;;;;;23.70;100814.00;;;;2060433;28;20264;-67
2021/07/23 03:21:48;;;;;;;2.90;2.70;;;;;23.70;100812.00;;;;2059742;28;20222;-66
2021/07/23 03:22:48;;;;;;;3.00;2.77;;;;;23.60;100813.00;;;;2056211;28;20941;-67
2021/07/23 03:23:49;;;;;;;2.77;2.57;;;;;23.60;100816.00;;;;2059841;28;20702;-66
2021/07/23 03:24:50;;;;;;;3.13;2.92;;;;;23.70;100814.00;;;;2060649;28;20207;-66
2021/07/23 03:25:50;;;;;;;3.13;2.93;;;;;23.60;100817.00;;;;2060777;28;20714;-67
2021/07/23 03:26:50;;;;;;;2.93;2.73;;;;;23.60;100810.00;;;;2050867;28;20738;-66
2021/07/23 03:27:51;;;;;;;3.10;2.90;;;;;23.60;100814.00;;;;2051792;28;20215;-67
2021/07/23 03:28:51;;;;;;;3.00;2.80;;;;;23.70;100810.00;;;;2059045;28;20289;-67
2021/07/23 03:29:51;;;;;;;2.90;2.70;;;;;23.60;100812.00;;;;2059341;28;20281;-67
2021/07/23 03:30:52;;;;;;;3.40;3.20;;;;;23.60;100815.00;;;;2058790;28;20218;-66
2021/07/23 03:31:52;;;;;;;2.97;2.77;;;;;23.70;100809.00;;;;2059406;28;20207;-67
2021/07/23 03:32:53;;;;;;;2.80;2.60;;;;;23.60;100806.00;;;;2059866;28;20263;-67
2021/07/23 03:33:53;;;;;;;3.00;2.80;;;;;23.70;100807.00;;;;2059947;28;20247;-67
2021/07/23 03:34:53;;;;;;;2.93;2.73;;;;;23.60;100800.00;;;;2060203;28;20227;-66
2021/07/23 03:35:54;;;;;;;3.10;2.90;;;;;23.70;100807.00;;;;2059966;28;20301;-67
2021/07/23 03:36:54;;;;;;;2.93;2.73;;;;;23.70;100810.00;;;;2059500;28;20215;-67
2021/07/23 03:37:55;;;;;;;2.87;2.67;;;;;23.60;100802.00;;;;2059420;28;20327;-67
2021/07/23 03:38:55;;;;;;;3.00;2.80;;;;;23.60;100810.00;;;;2059095;28;20223;-67
2021/07/23 03:39:55;;;;;;;2.87;2.67;;;;;23.60;100803.00;;;;2058966;28;20227;-67
2021/07/23 03:40:55;;;;;;;2.93;2.73;;;;;23.60;100806.00;;;;2058880;28;20338;-67
2021/07/23 03:41:56;;;;;;;2.67;2.47;;;;;23.60;100798.00;;;;2058846;28;20231;-67
2021/07/23 03:42:56;;;;;;;3.17;2.97;;;;;23.50;100800.00;;;;2058740;28;20268;-67
2021/07/23 03:43:56;;;;;;;2.80;2.60;;;;;23.60;100807.00;;;;2058901;28;20223;-67
2021/07/23 03:44:57;;;;;;;3.30;3.10;;;;;23.60;100804.00;;;;2062394;28;20230;-67
2021/07/23 03:45:59;;;;;;;2.87;2.67;;;;;23.60;100808.00;;;;2062253;28;20219;-67
2021/07/23 03:46:59;;;;;;;3.03;2.83;;;;;23.60;100808.00;;;;2061525;28;20254;-67
2021/07/23 03:47:59;;;;;;;3.13;2.93;;;;;23.60;100808.00;;;;2061448;28;20222;-67
2021/07/23 03:49:00;;;;;;;3.00;2.80;;;;;23.60;100809.00;;;;2059783;28;20208;-67
2021/07/23 03:50:00;;;;;;;3.37;3.17;;;;;23.60;100807.00;;;;2059979;28;20750;-67
2021/07/23 03:51:00;;;;;;;3.10;2.90;;;;;23.60;100802.00;;;;2059905;28;20986;-67
2021/07/23 03:52:01;;;;;;;2.63;2.53;;;;;23.60;100803.00;;;;2060155;28;20274;-67
2021/07/23 03:53:01;;;;;;;3.03;2.83;;;;;23.60;100802.00;;;;2059944;28;20253;-67
2021/07/23 03:54:01;;;;;;;2.93;2.73;;;;;23.60;100803.00;;;;2059427;28;20262;-67
2021/07/23 03:55:02;;;;;;;3.20;3.00;;;;;23.60;100806.00;;;;2060438;28;20258;-67
2021/07/23 03:56:05;;;;;;;3.07;2.87;;;;;23.60;100802.00;;;;2060495;28;20323;-66
2021/07/23 03:57:06;;;;;;;3.08;2.88;;;;;23.60;100805.00;;;;2060273;28;20211;-67
2021/07/23 03:58:06;;;;;;;3.00;2.80;;;;;23.70;100801.00;;;;2060115;28;20215;-67
2021/07/23 03:59:07;;;;;;;3.27;3.07;;;;;23.60;100818.00;;;;2059729;28;20262;-67
2021/07/23 04:00:08;;;;;;;3.00;2.80;;;;;23.60;100796.00;;;;2059328;28;20711;-67
2021/07/23 04:01:08;;;;;;;3.13;2.92;;;;;23.60;100801.00;;;;2058440;28;20725;-67
2021/07/23 04:02:08;;;;;;;3.23;3.03;;;;;23.60;100802.00;;;;2059186;28;20244;-67
2021/07/23 04:03:09;;;;;;;3.20;3.00;;;;;23.60;100800.00;;;;2060163;28;20584;-67
2021/07/23 04:04:09;;;;;;;3.20;3.00;;;;;23.60;100801.00;;;;2060286;28;20635;-67
2021/07/23 04:05:10;;;;;;;3.10;2.90;;;;;23.60;100799.00;;;;2061688;28;20690;-67
2021/07/23 04:06:10;;;;;;;3.07;2.87;;;;;23.60;100800.00;;;;2061497;28;20777;-67
2021/07/23 04:07:10;;;;;;;3.20;3.00;;;;;23.60;100800.00;;;;2060601;28;20249;-67
2021/07/23 04:08:11;;;;;;;2.90;2.70;;;;;23.60;100798.00;;;;2060135;28;20766;-67
2021/07/23 04:09:11;;;;;;;3.30;3.10;;;;;23.60;100795.00;;;;2060372;28;20274;-67
2021/07/23 04:10:12;;;;;;;2.93;2.73;;;;;23.60;100803.00;;;;2059741;28;20219;-67
2021/07/23 04:11:16;;;;;;;3.97;3.03;;;;;23.60;100797.00;;;;2060386;28;20216;-66
2021/07/23 04:12:17;;;;;;;2.95;2.75;;;;;23.60;100794.00;;;;2060009;28;20239;-66
2021/07/23 04:13:17;;;;;;;3.17;2.97;;;;;23.60;100797.00;;;;2062923;28;20211;-66
2021/07/23 04:14:17;;;;;;;2.97;2.77;;;;;23.60;100797.00;;;;2060356;28;20224;-66
2021/07/23 04:15:19;;;;;;;3.20;3.00;;;;;23.60;100797.00;;;;2059592;28;20211;-67
2021/07/23 04:16:19;;;;;;;3.00;2.80;;;;;23.60;100795.00;;;;2059540;28;20302;-66
2021/07/23 04:17:20;;;;;;;2.87;2.67;;;;;23.60;100796.00;;;;2059482;28;20215;-67
2021/07/23 04:18:20;;;;;;;3.17;2.87;;;;;23.60;100796.00;;;;2059488;28;20223;-67
2021/07/23 04:19:20;;;;;;;3.43;3.20;;;;;23.60;100791.00;;;;2060044;28;20218;-67
2021/07/23 04:20:21;;;;;;;2.80;2.60;;;;;23.60;100789.00;;;;2059416;28;20641;-67
2021/07/23 04:21:21;;;;;;;3.07;2.87;;;;;23.60;100797.00;;;;2060419;28;20589;-67
2021/07/23 04:22:21;;;;;;;2.90;2.70;;;;;23.60;100790.00;;;;2059651;28;20589;-67
2021/07/23 04:23:22;;;;;;;2.97;2.77;;;;;23.60;100788.00;;;;2059653;28;20699;-66
2021/07/23 04:24:23;;;;;;;3.20;3.00;;;;;23.60;100793.00;;;;2059360;28;20574;-66
2021/07/23 04:25:23;;;;;;;3.33;3.13;;;;;23.60;100787.00;;;;2059460;28;20237;-66
2021/07/23 04:26:23;;;;;;;3.20;3.00;;;;;23.60;100792.00;;;;2059492;28;20948;-66
2021/07/23 04:27:24;;;;;;;2.80;2.60;;;;;23.60;100793.00;;;;2059568;28;20238;-66
2021/07/23 04:28:24;;;;;;;2.43;2.23;;;;;23.60;100793.00;;;;2060257;28;20215;-66
2021/07/23 04:29:24;;;;;;;3.47;3.17;;;;;23.60;100793.00;;;;2060035;28;20207;-67
2021/07/23 04:30:25;;;;;;;3.00;2.80;;;;;23.60;100789.00;;;;2059628;28;20215;-67
2021/07/23 04:31:25;;;;;;;3.20;3.00;;;;;23.60;100793.00;;;;2060305;28;20554;-67
2021/07/23 04:32:26;;;;;;;2.80;2.60;;;;;23.60;100791.00;;;;2059196;28;20219;-67
2021/07/23 04:33:26;;;;;;;3.10;2.90;;;;;23.60;100794.00;;;;2059346;28;20277;-67
2021/07/23 04:34:26;;;;;;;3.47;3.27;;;;;23.60;100788.00;;;;2059274;28;20221;-67
2021/07/23 04:35:27;;;;;;;2.30;2.20;;;;;23.60;100787.00;;;;2058415;28;20747;-67
2021/07/23 04:36:27;;;;;;;2.80;2.60;;;;;23.60;100792.00;;;;2059414;28;20633;-66
2021/07/23 04:37:28;;;;;;;2.93;2.73;;;;;23.60;100790.00;;;;2059262;28;20220;-67
2021/07/23 04:38:28;;;;;;;2.97;2.77;;;;;23.60;100793.00;;;;2059845;28;20215;-66
2021/07/23 04:39:28;;;;;;;3.27;3.07;;;;;23.60;100785.00;;;;2059426;28;20257;-67
2021/07/23 04:40:29;;;;;;;2.93;2.73;;;;;23.60;100782.00;;;;2059128;28;20219;-67
2021/07/23 04:41:30;;;;;;;3.30;3.10;;;;;23.60;100795.00;;;;2061758;28;20217;-67
2021/07/23 04:42:30;;;;;;;3.07;2.87;;;;;23.60;100792.00;;;;2061046;28;20257;-67
2021/07/23 04:43:38;;;;;;;4.23;2.70;;;;;23.70;100793.00;;;;2059937;28;20451;-66
2021/07/23 04:44:38;;;;;;;3.13;2.92;;;;;23.60;100797.00;;;;2058879;28;20199;-67
2021/07/23 04:45:40;;;;;;;2.80;2.60;;;;;23.60;100792.00;;;;2058876;28;20752;-67
2021/07/23 04:46:40;;;;;;;3.03;2.80;;;;;23.60;100794.00;;;;2058662;28;20318;-67
2021/07/23 04:47:40;;;;;;;2.80;2.60;;;;;23.60;100790.00;;;;2058936;28;20766;-67
2021/07/23 04:48:41;;;;;;;3.20;2.90;;;;;23.60;100793.00;;;;2060074;28;20812;-67
2021/07/23 04:49:41;;;;;;;3.40;3.20;;;;;23.60;100784.00;;;;2059981;28;20212;-67
2021/07/23 04:50:41;;;;;;;3.30;3.00;;;;;23.60;100790.00;;;;2059097;28;20238;-67
2021/07/23 04:51:42;;;;;;;3.10;2.90;;;;;23.60;100790.00;;;;2059264;28;20211;-67
2021/07/23 04:52:42;;;;;;;2.87;2.67;;;;;23.60;100792.00;;;;2058764;28;20219;-67
2021/07/23 04:53:42;;;;;;;2.90;2.70;;;;;23.60;100795.00;;;;2058879;28;20230;-66
2021/07/23 04:54:43;;;;;;;3.03;2.83;;;;;23.60;100791.00;;;;2058512;28;20579;-67
2021/07/23 04:55:49;;;;;;;3.27;3.07;;;;;23.60;100789.00;;;;2058826;28;20604;-67
2021/07/23 04:56:52;;;;;;;3.00;2.80;;;;;23.60;100788.00;;;;2059288;28;20285;-67
2021/07/23 04:57:52;;;;;;;3.05;2.83;;;;;23.60;100795.00;;;;2059204;28;20230;-67
2021/07/23 04:58:53;;;;;;;2.70;2.60;;;;;23.60;100795.00;;;;2059312;28;20223;-66
2021/07/23 04:59:53;;;;;;;2.90;2.70;;;;;23.60;100788.00;;;;2059420;28;20220;-67